Saint Petersburg, FL (33706)

6:39 AM EST on February 13, 2016 (GMT -0500)
Barrier Island community | | Change Station
CLOSE
Current Station
Personal Weather Station
Location: Saint Pete Beach, FL
Elevation: 10 ft
Nearby Weather Stations

Elev 10 ft 27.72 °N, 82.74 °W | Updated 13 minutes ago

Clear
Clear
58.4 °F
Feels Like 58.4 °F
N
0.0
Wind Variable Wind from WSW
Gusts 0.0 mph

Today
High -- | Low -- °F
--% Chance of Precip.
Yesterday
High -- | Low -- °F
Precip. -- in
Pressure 30.19 in
Visibility 10.0 miles
Clouds Mostly Cloudy 2800 ft
Dew Point 57 °F
Humidity 95%
Rainfall 0.00 in
Snow Depth Not available.
7:10 AM 6:20 PM
Waxing Crescent, 30% visible
SPECI KSPG 131124Z AUTO 30005KT 10SM BKN028 17/14 A3019 RMK AO2 T01670144
Pressure 30.19 in
Visibility 10.0 miles
Clouds Mostly Cloudy 2800 ft
Dew Point 57 °F
Humidity 95%
Rainfall 0.00 in
Snow Depth Not available.
7:10 AM 6:20 PM
Waxing Crescent, 30% visible
SPECI KSPG 131124Z AUTO 30005KT 10SM BKN028 17/14 A3019 RMK AO2 T01670144

10-Day Weather Forecast

Almanac

Astronomy

Feb. 13, 2016 Rise Set
Actual Time
Civil Twilight
Nautical Twilight
Astronomical Twilight
Moon
Length of Visible Light
Length of Day
Tomorrow will be .
, % of the Moon is Illuminated

Today's Extremes

State Highs State Lows

Community

WunderPhotos

Upload Photos

1,892,541 photos uploaded!

WunderBlog® & News

Nearby

Air Quality

  Air Quality AQ Index Pollutant
Not available.

Snow Depth

Station Depth Elevation

Earthquake Activity

City Distance Mag. Time & Date
Minimum magnitude displayed is 2.5.

Coastal Water Temperatures

Place Temperature

Stations

Nearby Weather Stations

Station Location Temp. Windchill Dew Point Humidity Wind Precip. Elev Updated Type
                   

Watches & Warnings

There are currently no watches in effect.